createdAt,value
2018-12-08T00:01:03.799Z,12.80
2018-12-08T00:03:39.752Z,12.80
2018-12-08T00:06:09.699Z,12.70
2018-12-08T00:08:39.758Z,12.70
2018-12-08T00:11:09.668Z,12.70
2018-12-08T00:13:39.567Z,12.60
2018-12-08T00:16:09.284Z,12.60
2018-12-08T00:18:41.066Z,12.60
2018-12-08T00:21:11.829Z,12.60
2018-12-08T00:23:42.551Z,12.70
2018-12-08T00:26:12.042Z,12.60
2018-12-08T00:28:42.139Z,12.50
2018-12-08T00:31:30.178Z,12.60
2018-12-08T00:34:00.131Z,12.50
2018-12-08T00:36:31.462Z,12.50
2018-12-08T00:39:01.885Z,12.50
2018-12-08T00:41:33.215Z,12.50
2018-12-08T00:44:03.335Z,12.50
2018-12-08T00:50:13.045Z,12.50
2018-12-08T00:52:43.627Z,12.50
2018-12-08T00:55:13.857Z,12.50
2018-12-08T00:57:43.726Z,12.50
2018-12-08T01:00:13.296Z,12.50
2018-12-08T01:02:43.593Z,12.50
2018-12-08T01:05:18.338Z,12.50
2018-12-08T01:07:49.739Z,12.50
2018-12-08T01:10:19.175Z,12.50
2018-12-08T01:12:59.360Z,12.40
2018-12-08T01:15:29.345Z,12.60
2018-12-08T01:17:59.621Z,12.50
2018-12-08T01:20:29.808Z,12.40
2018-12-08T01:22:59.767Z,12.50
2018-12-08T01:25:29.490Z,12.50
2018-12-08T01:27:59.731Z,12.40
2018-12-08T01:30:29.928Z,12.40
2018-12-08T01:33:19.270Z,12.40
2018-12-08T01:35:58.589Z,12.40
2018-12-08T01:38:28.909Z,12.30
2018-12-08T01:40:58.759Z,12.30
2018-12-08T01:43:28.590Z,12.30
2018-12-08T01:45:58.756Z,12.20
2018-12-08T01:48:28.687Z,12.20
2018-12-08T01:50:58.711Z,12.20
2018-12-08T01:53:28.916Z,12.00
2018-12-08T01:55:58.808Z,12.00
2018-12-08T01:58:28.676Z,11.90
2018-12-08T02:00:58.957Z,11.90
2018-12-08T02:03:28.974Z,11.90
2018-12-08T02:06:14.521Z,11.90
2018-12-08T02:08:45.370Z,11.90
2018-12-08T02:11:24.683Z,11.90
2018-12-08T02:13:49.247Z,11.90
2018-12-08T02:16:19.431Z,11.90
2018-12-08T02:18:49.363Z,12.00
2018-12-08T02:21:27.455Z,12.00
2018-12-08T02:23:59.414Z,12.00
2018-12-08T02:26:29.547Z,12.00
2018-12-08T02:28:59.511Z,12.00
2018-12-08T02:31:34.249Z,12.00
2018-12-08T02:34:04.970Z,12.10
2018-12-08T02:36:35.047Z,12.10
2018-12-08T02:39:06.887Z,12.00
2018-12-08T02:41:38.220Z,12.00
2018-12-08T02:44:08.127Z,12.00
2018-12-08T02:46:38.021Z,11.90
2018-12-08T02:49:08.201Z,12.00
2018-12-08T02:51:42.096Z,12.00
2018-12-08T02:54:11.908Z,12.00
2018-12-08T02:56:44.215Z,12.10
2018-12-08T02:59:22.672Z,12.20
2018-12-08T03:01:52.733Z,12.20
2018-12-08T03:04:22.744Z,12.30
2018-12-08T03:06:53.023Z,12.40
2018-12-08T03:09:23.157Z,12.50
2018-12-08T03:11:53.306Z,12.40
2018-12-08T03:14:23.213Z,12.40
2018-12-08T03:16:53.548Z,14.20
2018-12-08T03:19:23.480Z,12.50
2018-12-08T03:21:53.261Z,12.40
2018-12-08T03:24:23.069Z,12.40
2018-12-08T03:26:53.038Z,12.40
2018-12-08T03:29:22.842Z,12.60
2018-12-08T03:31:55.708Z,12.60
2018-12-08T03:34:27.834Z,12.70
2018-12-08T03:37:04.130Z,12.70
2018-12-08T03:39:34.159Z,12.60
2018-12-08T03:42:04.031Z,12.50
2018-12-08T03:44:35.374Z,12.50
2018-12-08T03:47:05.763Z,12.50
2018-12-08T03:49:35.809Z,12.40
2018-12-08T03:52:05.709Z,12.40
2018-12-08T03:54:36.005Z,12.40
2018-12-08T03:57:08.400Z,12.40
2018-12-08T03:59:38.137Z,12.40
2018-12-08T04:02:07.987Z,12.50
2018-12-08T04:04:38.148Z,12.50
2018-12-08T04:07:07.815Z,12.60
2018-12-08T04:09:37.566Z,12.60
2018-12-08T04:12:07.970Z,12.60
2018-12-08T04:14:38.029Z,12.70
2018-12-08T04:17:07.852Z,12.60
2018-12-08T04:19:37.925Z,12.60
2018-12-08T04:22:08.503Z,12.60
2018-12-08T04:24:40.869Z,12.60
2018-12-08T04:30:03.628Z,12.60
2018-12-08T04:32:33.756Z,12.60
2018-12-08T04:35:04.597Z,12.60
2018-12-08T04:37:36.326Z,12.50
2018-12-08T04:40:06.967Z,12.70
2018-12-08T04:42:36.907Z,12.50
2018-12-08T04:45:07.710Z,12.50
2018-12-08T04:47:37.845Z,12.60
2018-12-08T04:50:07.947Z,12.50
2018-12-08T04:52:40.187Z,12.50
2018-12-08T04:55:10.764Z,12.50
2018-12-08T04:57:40.596Z,12.50
2018-12-08T05:00:11.022Z,12.50
2018-12-08T05:02:40.892Z,12.50
2018-12-08T05:05:10.371Z,12.50
2018-12-08T05:07:40.240Z,12.60
2018-12-08T05:10:10.170Z,12.50
2018-12-08T05:12:40.096Z,12.60
2018-12-08T05:15:09.699Z,12.70
2018-12-08T05:17:39.802Z,12.60
2018-12-08T05:20:09.387Z,12.60
2018-12-08T05:22:39.282Z,12.60
2018-12-08T05:25:09.973Z,12.70
2018-12-08T05:27:40.099Z,12.60
2018-12-08T05:30:09.676Z,12.60
2018-12-08T05:32:40.475Z,12.70
2018-12-08T05:35:10.153Z,12.70
2018-12-08T05:37:42.655Z,12.70
2018-12-08T05:40:18.853Z,12.70
2018-12-08T05:42:48.716Z,12.70
2018-12-08T05:45:18.662Z,12.60
2018-12-08T05:47:54.355Z,12.50
2018-12-08T05:50:24.336Z,12.60
2018-12-08T05:52:54.076Z,12.50
2018-12-08T05:55:24.038Z,12.50
2018-12-08T05:57:53.757Z,12.50
2018-12-08T06:00:32.414Z,12.40
2018-12-08T06:03:02.184Z,12.40
2018-12-08T06:05:32.318Z,12.50
2018-12-08T06:08:07.723Z,12.50
2018-12-08T06:10:37.790Z,12.50
2018-12-08T06:13:08.134Z,12.50
2018-12-08T06:15:38.055Z,12.40
2018-12-08T06:18:07.956Z,12.40
2018-12-08T06:20:37.784Z,12.40
2018-12-08T06:23:07.644Z,12.40
2018-12-08T06:25:39.001Z,12.40
2018-12-08T06:28:45.662Z,12.40
2018-12-08T06:31:22.308Z,12.40
2018-12-08T06:33:52.565Z,12.40
2018-12-08T06:36:22.572Z,12.40
2018-12-08T06:38:52.599Z,12.40
2018-12-08T06:41:23.958Z,12.40
2018-12-08T06:43:54.026Z,12.50
2018-12-08T06:46:24.006Z,12.50
2018-12-08T06:48:54.890Z,12.50
2018-12-08T06:51:24.916Z,12.50
2018-12-08T06:53:54.807Z,12.60
2018-12-08T06:56:24.748Z,12.60
2018-12-08T06:58:54.593Z,12.60
2018-12-08T07:01:24.287Z,12.50
2018-12-08T07:03:54.092Z,12.60
2018-12-08T07:06:23.998Z,12.60
2018-12-08T07:08:53.710Z,12.50
2018-12-08T07:11:23.963Z,12.60
2018-12-08T07:13:53.814Z,12.60
2018-12-08T07:16:23.667Z,12.60
2018-12-08T07:19:03.439Z,12.70
2018-12-08T07:21:33.349Z,12.80
2018-12-08T07:24:03.011Z,12.80
2018-12-08T07:26:33.211Z,13.00
2018-12-08T07:29:03.378Z,12.90
2018-12-08T07:31:33.130Z,13.00
2018-12-08T07:34:03.249Z,13.00
2018-12-08T07:36:33.129Z,13.20
2018-12-08T07:39:04.467Z,13.20
2018-12-08T07:41:35.150Z,13.30
2018-12-08T07:44:05.266Z,13.30
2018-12-08T07:46:35.157Z,13.30
2018-12-08T07:49:04.803Z,13.40
2018-12-08T07:51:40.661Z,13.40
2018-12-08T07:54:10.676Z,13.50
2018-12-08T07:56:40.792Z,13.50
2018-12-08T07:59:16.175Z,13.50
2018-12-08T08:01:46.168Z,13.40
2018-12-08T08:04:25.934Z,13.40
2018-12-08T08:06:56.125Z,13.40
2018-12-08T08:09:26.101Z,13.50
2018-12-08T08:11:56.254Z,13.40
2018-12-08T08:14:27.228Z,13.40
2018-12-08T08:16:56.983Z,13.40
2018-12-08T08:19:26.824Z,13.50
2018-12-08T08:21:56.868Z,13.60
2018-12-08T08:24:26.696Z,13.70
2018-12-08T08:26:56.506Z,13.70
2018-12-08T08:29:30.400Z,13.80
2018-12-08T08:32:04.930Z,13.90
2018-12-08T08:34:35.149Z,13.90
2018-12-08T08:37:05.144Z,13.90
2018-12-08T08:39:35.183Z,13.70
2018-12-08T08:42:05.331Z,13.60
2018-12-08T08:44:35.348Z,13.50
2018-12-08T08:47:07.222Z,13.50
2018-12-08T08:49:39.427Z,13.70
2018-12-08T08:52:09.341Z,14.00
2018-12-08T08:54:40.409Z,13.90
2018-12-08T08:57:10.127Z,14.00
2018-12-08T08:59:46.483Z,14.20
2018-12-08T09:02:16.132Z,14.20
2018-12-08T09:04:46.242Z,14.20
2018-12-08T09:07:16.852Z,14.00
2018-12-08T09:09:49.028Z,14.00
2018-12-08T09:12:18.773Z,13.80
2018-12-08T09:14:53.049Z,13.80
2018-12-08T09:17:23.436Z,13.90
2018-12-08T09:19:53.559Z,13.90
2018-12-08T09:22:23.552Z,13.90
2018-12-08T09:25:20.846Z,13.90
2018-12-08T09:28:00.462Z,14.20
2018-12-08T09:30:31.464Z,14.20
2018-12-08T09:33:01.583Z,14.40
2018-12-08T09:35:31.798Z,14.50
2018-12-08T09:38:01.963Z,14.40
2018-12-08T09:40:32.212Z,14.60
2018-12-08T09:43:02.372Z,14.60
2018-12-08T09:45:32.301Z,14.50
2018-12-08T09:48:02.256Z,14.40
2018-12-08T09:50:32.194Z,14.40
2018-12-08T09:53:18.652Z,14.40
2018-12-08T09:55:49.215Z,14.50
2018-12-08T09:58:21.160Z,14.60
2018-12-08T10:00:53.279Z,14.70
2018-12-08T10:03:23.916Z,14.70
2018-12-08T10:06:00.873Z,14.60
2018-12-08T10:08:30.963Z,14.70
2018-12-08T10:11:04.004Z,14.60
2018-12-08T10:13:33.943Z,14.70
2018-12-08T10:16:04.184Z,14.70
2018-12-08T10:18:34.415Z,14.60
2018-12-08T10:21:05.574Z,14.70
2018-12-08T10:23:35.472Z,14.90
2018-12-08T10:26:05.632Z,14.90
2018-12-08T10:28:46.206Z,14.80
2018-12-08T10:31:16.210Z,14.60
2018-12-08T10:34:01.884Z,14.50
2018-12-08T10:36:31.908Z,14.40
2018-12-08T10:39:12.850Z,14.40
2018-12-08T10:41:42.938Z,14.40
2018-12-08T10:44:24.303Z,14.70
2018-12-08T10:46:54.213Z,14.80
2018-12-08T10:49:25.258Z,14.80
2018-12-08T10:51:55.316Z,15.10
2018-12-08T10:54:27.678Z,15.00
2018-12-08T10:56:57.841Z,15.00
2018-12-08T10:59:27.923Z,15.30
2018-12-08T11:02:02.556Z,15.50
2018-12-08T11:04:33.458Z,15.40
2018-12-08T11:07:03.536Z,15.40
2018-12-08T11:09:33.749Z,15.30
2018-12-08T11:12:05.510Z,15.20
2018-12-08T11:14:35.815Z,15.00
2018-12-08T11:17:05.912Z,15.10
2018-12-08T11:19:36.536Z,15.20
2018-12-08T11:22:07.069Z,15.30
2018-12-08T11:24:38.399Z,15.20
2018-12-08T11:27:09.081Z,15.30
2018-12-08T11:29:39.579Z,15.40
2018-12-08T11:32:10.465Z,15.40
2018-12-08T11:34:41.051Z,15.30
2018-12-08T11:37:11.494Z,15.30
2018-12-08T11:39:41.841Z,15.30
2018-12-08T11:42:11.655Z,15.30
2018-12-08T11:44:42.989Z,15.40
2018-12-08T11:47:12.669Z,15.50
2018-12-08T11:50:07.976Z,15.50
2018-12-08T11:52:37.913Z,15.40
2018-12-08T11:55:07.997Z,15.50
2018-12-08T11:57:38.115Z,15.50
2018-12-08T12:00:09.256Z,15.80
2018-12-08T12:02:39.805Z,15.90
2018-12-08T12:07:46.779Z,15.80
2018-12-08T12:10:16.476Z,15.70
2018-12-08T12:12:46.588Z,15.70
2018-12-08T12:15:16.823Z,15.70
2018-12-08T12:17:47.284Z,15.40
2018-12-08T12:20:17.134Z,15.80
2018-12-08T12:22:48.019Z,15.90
2018-12-08T12:25:18.207Z,15.90
2018-12-08T12:27:48.431Z,16.20
2018-12-08T12:30:18.515Z,16.10
2018-12-08T12:32:49.359Z,16.10
2018-12-08T12:35:19.359Z,16.10
2018-12-08T12:37:49.360Z,16.20
2018-12-08T12:40:19.371Z,16.20
2018-12-08T12:42:49.361Z,16.30
2018-12-08T12:45:19.784Z,16.30
2018-12-08T12:47:49.797Z,16.30
2018-12-08T12:50:19.847Z,16.20
2018-12-08T12:52:49.966Z,16.20
2018-12-08T12:55:21.864Z,16.30
2018-12-08T12:57:52.042Z,16.40
2018-12-08T13:00:23.105Z,16.30
2018-12-08T13:02:53.336Z,16.20
2018-12-08T13:05:37.966Z,16.20
2018-12-08T13:08:08.366Z,16.30
2018-12-08T13:10:38.787Z,16.20
2018-12-08T13:13:09.546Z,16.20
2018-12-08T13:15:39.742Z,16.20
2018-12-08T13:18:10.162Z,16.30
2018-12-08T13:20:40.753Z,16.20
2018-12-08T13:23:10.334Z,16.10
2018-12-08T13:25:40.350Z,16.00
2018-12-08T13:28:10.179Z,16.00
2018-12-08T13:30:40.396Z,16.20
2018-12-08T13:33:10.425Z,16.20
2018-12-08T13:35:59.287Z,16.10
2018-12-08T13:38:34.580Z,15.90
2018-12-08T13:41:04.730Z,15.80
2018-12-08T13:43:34.849Z,16.00
2018-12-08T13:46:14.183Z,16.00
2018-12-08T13:55:12.418Z,15.90
2018-12-08T13:57:47.841Z,16.10
2018-12-08T14:00:17.787Z,16.20
2018-12-08T14:02:50.433Z,15.90
2018-12-08T14:05:21.363Z,15.80
2018-12-08T14:07:51.498Z,15.80
2018-12-08T14:10:21.760Z,15.70
2018-12-08T14:12:51.923Z,15.50
2018-12-08T14:15:22.489Z,15.40
2018-12-08T14:17:52.676Z,17.60
2018-12-08T14:20:32.683Z,15.40
2018-12-08T14:23:02.898Z,15.50
2018-12-08T14:25:33.136Z,15.40
2018-12-08T14:28:03.428Z,15.50
2018-12-08T14:30:33.330Z,15.50
2018-12-08T14:33:03.566Z,15.60
2018-12-08T14:35:33.789Z,15.60
2018-12-08T14:38:03.985Z,15.60
2018-12-08T14:41:05.083Z,15.70
2018-12-08T14:43:34.949Z,15.60
2018-12-08T14:46:11.389Z,15.60
2018-12-08T14:48:46.217Z,15.60
2018-12-08T14:51:15.901Z,15.50
2018-12-08T14:53:45.953Z,15.60
2018-12-08T14:56:15.953Z,15.70
2018-12-08T14:58:46.278Z,15.60
2018-12-08T15:01:16.510Z,15.60
2018-12-08T15:03:46.586Z,14.30
2018-12-08T15:06:16.285Z,15.40
2018-12-08T15:08:46.264Z,15.40
2018-12-08T15:11:16.371Z,15.40
2018-12-08T15:13:47.406Z,15.50
2018-12-08T15:16:17.130Z,15.70
2018-12-08T15:18:47.243Z,15.80
2018-12-08T15:21:17.069Z,15.60
2018-12-08T15:23:47.227Z,15.60
2018-12-08T15:26:16.874Z,15.60
2018-12-08T15:28:47.024Z,15.40
2018-12-08T15:31:16.646Z,15.30
2018-12-08T15:33:46.556Z,15.30
2018-12-08T15:36:16.300Z,15.40
2018-12-08T15:38:46.291Z,15.30
2018-12-08T15:41:16.377Z,15.30
2018-12-08T15:43:46.800Z,15.20
2018-12-08T15:46:16.564Z,15.10
2018-12-08T15:48:46.655Z,15.10
2018-12-08T15:51:16.657Z,15.10
2018-12-08T15:53:46.727Z,15.10
2018-12-08T15:56:17.942Z,15.10
2018-12-08T15:58:48.244Z,14.90
2018-12-08T16:01:18.570Z,14.90
2018-12-08T16:03:48.704Z,14.90
2018-12-08T16:06:21.643Z,14.90
2018-12-08T16:08:51.697Z,14.90
2018-12-08T16:11:21.830Z,14.90
2018-12-08T16:13:52.147Z,14.90
2018-12-08T16:16:21.720Z,14.90
2018-12-08T16:18:58.651Z,14.70
2018-12-08T16:21:28.675Z,14.70
2018-12-08T16:23:58.740Z,14.60
2018-12-08T16:26:28.972Z,14.60
2018-12-08T16:28:59.224Z,14.60
2018-12-08T16:31:36.126Z,14.60
2018-12-08T16:34:06.668Z,14.70
2018-12-08T16:36:36.888Z,14.50
2018-12-08T16:39:08.467Z,14.60
2018-12-08T16:44:31.375Z,14.50
2018-12-08T16:47:01.599Z,14.50
2018-12-08T16:49:31.779Z,14.40
2018-12-08T16:52:01.753Z,14.50
2018-12-08T16:54:32.697Z,14.40
2018-12-08T16:57:04.690Z,14.40
2018-12-08T16:59:35.109Z,14.40
2018-12-08T17:02:06.220Z,14.40
2018-12-08T17:04:37.010Z,14.40
2018-12-08T17:07:07.399Z,14.30
2018-12-08T17:09:37.436Z,14.30
2018-12-08T17:12:12.924Z,14.20
2018-12-08T17:14:43.412Z,14.20
2018-12-08T17:17:23.944Z,14.20
2018-12-08T17:19:54.140Z,14.20
2018-12-08T17:22:25.538Z,14.20
2018-12-08T17:24:55.654Z,14.20
2018-12-08T17:27:25.771Z,14.20
2018-12-08T17:29:56.165Z,14.00
2018-12-08T17:32:26.348Z,14.00
2018-12-08T17:34:58.064Z,14.00
2018-12-08T17:37:28.852Z,14.00
2018-12-08T17:39:59.227Z,14.00
2018-12-08T17:42:29.121Z,13.90
2018-12-08T17:44:59.476Z,13.80
2018-12-08T17:47:29.693Z,13.80
2018-12-08T17:49:59.764Z,13.80
2018-12-08T17:52:29.948Z,13.80
2018-12-08T17:55:00.557Z,13.70
2018-12-08T17:57:33.875Z,13.70
2018-12-08T18:00:04.600Z,13.60
2018-12-08T18:02:34.636Z,13.60
2018-12-08T18:05:05.440Z,13.60
2018-12-08T18:07:36.005Z,13.60
2018-12-08T18:10:08.391Z,13.50
2018-12-08T18:12:38.792Z,13.50
2018-12-08T18:15:14.357Z,13.60
2018-12-08T18:17:44.845Z,13.70
2018-12-08T18:20:14.694Z,13.70
2018-12-08T18:22:45.290Z,13.70
2018-12-08T18:25:15.014Z,13.70
2018-12-08T18:27:45.832Z,13.80
2018-12-08T18:30:18.692Z,13.80
2018-12-08T18:32:49.051Z,13.70
2018-12-08T18:35:18.812Z,13.70
2018-12-08T18:37:49.876Z,13.60
2018-12-08T18:40:27.940Z,13.50
2018-12-08T18:42:58.001Z,13.50
2018-12-08T18:45:32.100Z,13.60
2018-12-08T18:48:02.350Z,13.50
2018-12-08T18:50:32.403Z,13.50
2018-12-08T18:53:02.276Z,13.40
2018-12-08T18:55:32.349Z,13.40
2018-12-08T18:58:02.897Z,13.40
2018-12-08T19:00:32.962Z,13.40
2018-12-08T19:03:03.104Z,13.40
2018-12-08T19:05:33.412Z,13.40
2018-12-08T19:08:07.731Z,13.50
2018-12-08T19:10:37.893Z,14.80
2018-12-08T19:13:08.434Z,13.40
2018-12-08T19:15:38.455Z,13.50
2018-12-08T19:18:08.427Z,13.60
2018-12-08T19:20:41.285Z,13.60
2018-12-08T19:23:11.432Z,13.60
2018-12-08T19:25:41.688Z,13.70
2018-12-08T19:28:12.220Z,13.50
2018-12-08T19:30:42.482Z,13.50
2018-12-08T19:33:14.687Z,13.40
2018-12-08T19:35:44.385Z,13.50
2018-12-08T19:38:14.016Z,13.50
2018-12-08T19:40:44.412Z,13.50
2018-12-08T19:43:14.015Z,13.50
2018-12-08T19:45:44.231Z,13.50
2018-12-08T19:48:14.913Z,13.50
2018-12-08T19:50:45.010Z,13.50
2018-12-08T19:53:15.978Z,13.50
2018-12-08T19:55:46.166Z,13.60
2018-12-08T19:58:15.903Z,13.60
2018-12-08T20:00:45.856Z,13.50
2018-12-08T20:03:15.565Z,13.60
2018-12-08T20:05:51.027Z,13.50
2018-12-08T20:08:27.027Z,13.50
2018-12-08T20:10:56.950Z,13.40
2018-12-08T20:13:26.963Z,13.40
2018-12-08T20:15:57.331Z,13.30
2018-12-08T20:18:27.562Z,13.30
2018-12-08T20:20:57.599Z,13.30
2018-12-08T20:23:27.881Z,13.30
2018-12-08T20:25:57.986Z,13.30
2018-12-08T20:28:35.648Z,13.30
2018-12-08T20:31:05.988Z,13.30
2018-12-08T20:33:35.809Z,13.30
2018-12-08T20:36:06.131Z,13.30
2018-12-08T20:38:36.708Z,13.30
2018-12-08T20:41:07.141Z,13.30
2018-12-08T20:43:37.248Z,13.40
2018-12-08T20:46:07.248Z,13.30
2018-12-08T20:48:38.231Z,13.40
2018-12-08T20:51:08.473Z,13.30
2018-12-08T20:53:38.638Z,13.30
2018-12-08T20:56:13.675Z,13.20
2018-12-08T20:58:43.606Z,13.20
2018-12-08T21:01:15.710Z,13.20
2018-12-08T21:03:45.668Z,13.10
2018-12-08T21:06:15.379Z,13.20
2018-12-08T21:08:45.490Z,13.10
2018-12-08T21:11:15.249Z,13.10
2018-12-08T21:13:47.956Z,13.20
2018-12-08T21:16:17.715Z,13.20
2018-12-08T21:18:47.661Z,13.10
2018-12-08T21:21:17.270Z,13.10
2018-12-08T21:23:47.198Z,13.10
2018-12-08T21:26:16.731Z,13.10
2018-12-08T21:28:46.946Z,13.10
2018-12-08T21:31:16.491Z,13.10
2018-12-08T21:33:46.399Z,13.00
2018-12-08T21:36:15.992Z,13.00
2018-12-08T21:38:45.742Z,13.10
2018-12-08T21:41:16.464Z,13.10
2018-12-08T21:43:46.825Z,13.00
2018-12-08T21:46:16.359Z,13.00
2018-12-08T21:48:47.376Z,13.00
2018-12-08T21:51:16.960Z,13.00
2018-12-08T21:53:47.065Z,13.00
2018-12-08T21:56:21.730Z,13.00
2018-12-08T21:58:51.667Z,12.90
2018-12-08T22:01:21.269Z,12.90
2018-12-08T22:03:51.293Z,13.00
2018-12-08T22:06:21.974Z,13.00
2018-12-08T22:08:51.786Z,13.00
2018-12-08T22:11:25.480Z,13.00
2018-12-08T22:13:55.890Z,13.00
2018-12-08T22:16:25.681Z,13.10
2018-12-08T22:18:55.614Z,13.10
2018-12-08T22:21:25.445Z,13.20
2018-12-08T22:23:55.316Z,13.20
2018-12-08T22:26:25.838Z,13.20
2018-12-08T22:28:55.856Z,13.20
2018-12-08T22:31:25.787Z,13.10
2018-12-08T22:33:55.892Z,13.10
2018-12-08T22:36:25.784Z,13.10
2018-12-08T22:38:55.722Z,13.00
2018-12-08T22:41:25.999Z,13.00
2018-12-08T22:43:55.757Z,13.00
2018-12-08T22:46:25.726Z,13.00
2018-12-08T22:48:55.974Z,13.00
2018-12-08T22:51:28.148Z,13.00
2018-12-08T22:53:58.478Z,13.00
2018-12-08T22:56:28.460Z,13.00
2018-12-08T22:58:58.704Z,12.90
2018-12-08T23:01:28.991Z,12.90
2018-12-08T23:03:59.054Z,13.00
2018-12-08T23:06:40.472Z,12.90
2018-12-08T23:09:13.198Z,12.90
2018-12-08T23:11:45.662Z,12.90
2018-12-08T23:14:15.200Z,13.10
2018-12-08T23:16:46.692Z,13.10
2018-12-08T23:21:57.203Z,13.10
2018-12-08T23:24:27.213Z,13.10
2018-12-08T23:26:57.235Z,13.10
2018-12-08T23:29:27.249Z,13.10
2018-12-08T23:31:57.162Z,13.00
2018-12-08T23:34:27.234Z,13.00
2018-12-08T23:36:57.205Z,13.00
2018-12-08T23:39:27.239Z,13.00
2018-12-08T23:41:57.230Z,13.10
2018-12-08T23:44:27.272Z,13.10
2018-12-08T23:46:57.262Z,13.10
2018-12-08T23:49:27.430Z,13.10
2018-12-08T23:51:57.384Z,13.00
2018-12-08T23:54:27.186Z,13.00
2018-12-08T23:56:57.180Z,13.00
2018-12-08T23:59:27.562Z,13.00
